sensor_id;sensor_type;location;lat;lon;timestamp;temperature;humidity
23685;DHT22;12020;51.384;6.908;2023-02-11T00:01:25;6.60;99.90
23685;DHT22;12020;51.384;6.908;2023-02-11T00:03:53;6.60;99.90
23685;DHT22;12020;51.384;6.908;2023-02-11T00:06:19;6.70;99.90
23685;DHT22;12020;51.384;6.908;2023-02-11T00:11:19;6.70;99.90
23685;DHT22;12020;51.384;6.908;2023-02-11T00:13:47;6.70;99.90
23685;DHT22;12020;51.384;6.908;2023-02-11T00:16:14;6.70;99.90
23685;DHT22;12020;51.384;6.908;2023-02-11T00:18:41;6.70;99.90
23685;DHT22;12020;51.384;6.908;2023-02-11T00:21:11;6.70;99.90
23685;DHT22;12020;51.384;6.908;2023-02-11T00:23:39;6.70;99.90
23685;DHT22;12020;51.384;6.908;2023-02-11T00:26:17;6.70;99.90
23685;DHT22;12020;51.384;6.908;2023-02-11T00:28:44;6.70;99.90
23685;DHT22;12020;51.384;6.908;2023-02-11T00:31:10;6.70;99.90
23685;DHT22;12020;51.384;6.908;2023-02-11T00:33:35;6.70;99.90
23685;DHT22;12020;51.384;6.908;2023-02-11T00:38:35;6.70;99.90
23685;DHT22;12020;51.384;6.908;2023-02-11T00:43:47;6.70;99.90
23685;DHT22;12020;51.384;6.908;2023-02-11T00:46:17;6.70;99.90
23685;DHT22;12020;51.384;6.908;2023-02-11T00:53:42;6.70;99.90
23685;DHT22;12020;51.384;6.908;2023-02-11T00:56:08;6.70;99.90
23685;DHT22;12020;51.384;6.908;2023-02-11T00:58:36;6.70;99.90
23685;DHT22;12020;51.384;6.908;2023-02-11T01:01:07;6.80;99.90
23685;DHT22;12020;51.384;6.908;2023-02-11T01:03:35;6.70;99.90
23685;DHT22;12020;51.384;6.908;2023-02-11T01:06:00;6.70;99.90
23685;DHT22;12020;51.384;6.908;2023-02-11T01:08:27;6.70;99.90
23685;DHT22;12020;51.384;6.908;2023-02-11T01:10:59;6.70;99.90
23685;DHT22;12020;51.384;6.908;2023-02-11T01:13:25;6.70;99.90
23685;DHT22;12020;51.384;6.908;2023-02-11T01:15:51;6.70;99.90
23685;DHT22;12020;51.384;6.908;2023-02-11T01:18:17;6.80;99.90
23685;DHT22;12020;51.384;6.908;2023-02-11T01:20:43;6.70;99.90
23685;DHT22;12020;51.384;6.908;2023-02-11T01:23:09;6.70;99.90
23685;DHT22;12020;51.384;6.908;2023-02-11T01:25:34;6.80;99.90
23685;DHT22;12020;51.384;6.908;2023-02-11T01:28:00;6.70;99.90
23685;DHT22;12020;51.384;6.908;2023-02-11T01:30:26;6.80;99.90
23685;DHT22;12020;51.384;6.908;2023-02-11T01:32:52;6.80;99.90
23685;DHT22;12020;51.384;6.908;2023-02-11T01:35:18;6.80;99.90
23685;DHT22;12020;51.384;6.908;2023-02-11T01:37:44;6.80;99.90
23685;DHT22;12020;51.384;6.908;2023-02-11T01:40:15;6.80;99.90
23685;DHT22;12020;51.384;6.908;2023-02-11T01:42:48;6.80;99.90
23685;DHT22;12020;51.384;6.908;2023-02-11T01:51:14;6.80;99.90
23685;DHT22;12020;51.384;6.908;2023-02-11T01:56:37;6.80;99.90
23685;DHT22;12020;51.384;6.908;2023-02-11T01:59:43;6.80;99.90
23685;DHT22;12020;51.384;6.908;2023-02-11T02:02:11;6.80;99.90
23685;DHT22;12020;51.384;6.908;2023-02-11T02:04:41;6.80;99.90
23685;DHT22;12020;51.384;6.908;2023-02-11T02:07:10;6.80;99.90
23685;DHT22;12020;51.384;6.908;2023-02-11T02:09:47;6.80;99.90
23685;DHT22;12020;51.384;6.908;2023-02-11T02:12:15;6.80;99.90
23685;DHT22;12020;51.384;6.908;2023-02-11T02:14:41;6.70;99.90
23685;DHT22;12020;51.384;6.908;2023-02-11T02:17:09;6.70;99.90
23685;DHT22;12020;51.384;6.908;2023-02-11T02:33:38;6.70;99.90
23685;DHT22;12020;51.384;6.908;2023-02-11T02:36:12;6.70;99.90
23685;DHT22;12020;51.384;6.908;2023-02-11T02:41:26;6.70;99.90
23685;DHT22;12020;51.384;6.908;2023-02-11T02:43:55;6.70;99.90
23685;DHT22;12020;51.384;6.908;2023-02-11T02:48:58;6.70;99.90
23685;DHT22;12020;51.384;6.908;2023-02-11T02:56:55;6.70;99.90
23685;DHT22;12020;51.384;6.908;2023-02-11T02:59:24;6.70;99.90
23685;DHT22;12020;51.384;6.908;2023-02-11T03:07:34;6.60;99.90
23685;DHT22;12020;51.384;6.908;2023-02-11T03:12:57;6.60;99.90
23685;DHT22;12020;51.384;6.908;2023-02-11T03:15:26;6.60;99.90
23685;DHT22;12020;51.384;6.908;2023-02-11T03:17:54;6.60;99.90
23685;DHT22;12020;51.384;6.908;2023-02-11T03:20:21;6.60;99.90
23685;DHT22;12020;51.384;6.908;2023-02-11T03:22:51;6.60;99.90
23685;DHT22;12020;51.384;6.908;2023-02-11T03:25:17;6.60;99.90
23685;DHT22;12020;51.384;6.908;2023-02-11T03:27:56;6.60;99.90
23685;DHT22;12020;51.384;6.908;2023-02-11T03:30:38;6.60;99.90
23685;DHT22;12020;51.384;6.908;2023-02-11T03:36:11;6.60;99.90
23685;DHT22;12020;51.384;6.908;2023-02-11T03:38:44;6.60;99.90
23685;DHT22;12020;51.384;6.908;2023-02-11T03:41:15;6.60;99.90
23685;DHT22;12020;51.384;6.908;2023-02-11T03:46:11;6.60;99.90
23685;DHT22;12020;51.384;6.908;2023-02-11T03:51:11;6.60;99.90
23685;DHT22;12020;51.384;6.908;2023-02-11T03:53:40;6.60;99.90
23685;DHT22;12020;51.384;6.908;2023-02-11T03:56:08;6.60;99.90
23685;DHT22;12020;51.384;6.908;2023-02-11T04:01:06;6.60;99.90
23685;DHT22;12020;51.384;6.908;2023-02-11T04:03:42;6.60;99.90
23685;DHT22;12020;51.384;6.908;2023-02-11T04:06:08;6.60;99.90
23685;DHT22;12020;51.384;6.908;2023-02-11T04:08:36;6.60;99.90
23685;DHT22;12020;51.384;6.908;2023-02-11T04:13:36;6.60;99.90
23685;DHT22;12020;51.384;6.908;2023-02-11T04:16:04;6.60;99.90
23685;DHT22;12020;51.384;6.908;2023-02-11T04:18:29;6.60;99.90
23685;DHT22;12020;51.384;6.908;2023-02-11T04:23:26;6.50;99.90
23685;DHT22;12020;51.384;6.908;2023-02-11T04:25:52;6.50;99.90
23685;DHT22;12020;51.384;6.908;2023-02-11T04:28:19;6.50;99.90
23685;DHT22;12020;51.384;6.908;2023-02-11T04:30:44;6.60;99.90
23685;DHT22;12020;51.384;6.908;2023-02-11T04:33:10;6.50;99.90
23685;DHT22;12020;51.384;6.908;2023-02-11T04:38:10;6.50;99.90
23685;DHT22;12020;51.384;6.908;2023-02-11T04:40:38;6.50;99.90
23685;DHT22;12020;51.384;6.908;2023-02-11T04:43:04;6.50;99.90
23685;DHT22;12020;51.384;6.908;2023-02-11T04:45:33;6.50;99.90
23685;DHT22;12020;51.384;6.908;2023-02-11T04:48:02;6.50;99.90
23685;DHT22;12020;51.384;6.908;2023-02-11T04:50:46;6.50;99.90
23685;DHT22;12020;51.384;6.908;2023-02-11T04:53:11;6.50;99.90
23685;DHT22;12020;51.384;6.908;2023-02-11T04:58:17;6.50;99.90
23685;DHT22;12020;51.384;6.908;2023-02-11T05:00:44;6.50;99.90
23685;DHT22;12020;51.384;6.908;2023-02-11T05:08:14;6.50;99.90
23685;DHT22;12020;51.384;6.908;2023-02-11T05:10:44;6.50;99.90
23685;DHT22;12020;51.384;6.908;2023-02-11T05:13:17;6.50;99.90
23685;DHT22;12020;51.384;6.908;2023-02-11T05:15:43;6.50;99.90
23685;DHT22;12020;51.384;6.908;2023-02-11T05:18:13;6.50;99.90
23685;DHT22;12020;51.384;6.908;2023-02-11T05:20:47;6.50;99.90
23685;DHT22;12020;51.384;6.908;2023-02-11T05:23:15;6.40;99.90
23685;DHT22;12020;51.384;6.908;2023-02-11T05:28:09;6.40;99.90
23685;DHT22;12020;51.384;6.908;2023-02-11T05:30:36;6.40;99.90
23685;DHT22;12020;51.384;6.908;2023-02-11T05:33:09;6.40;99.90
23685;DHT22;12020;51.384;6.908;2023-02-11T05:35:39;6.40;99.90
23685;DHT22;12020;51.384;6.908;2023-02-11T05:38:06;6.40;99.90
23685;DHT22;12020;51.384;6.908;2023-02-11T05:40:34;6.40;99.90
23685;DHT22;12020;51.384;6.908;2023-02-11T05:43:00;6.40;99.90
23685;DHT22;12020;51.384;6.908;2023-02-11T05:45:27;6.40;99.90
23685;DHT22;12020;51.384;6.908;2023-02-11T05:52:56;6.40;99.90
23685;DHT22;12020;51.384;6.908;2023-02-11T05:55:21;6.40;99.90
23685;DHT22;12020;51.384;6.908;2023-02-11T05:57:49;6.40;99.90
23685;DHT22;12020;51.384;6.908;2023-02-11T06:00:16;6.40;99.90
23685;DHT22;12020;51.384;6.908;2023-02-11T06:07:41;6.40;99.90
23685;DHT22;12020;51.384;6.908;2023-02-11T06:10:12;6.30;99.90
23685;DHT22;12020;51.384;6.908;2023-02-11T06:12:39;6.40;99.90
23685;DHT22;12020;51.384;6.908;2023-02-11T06:15:06;6.30;99.90
23685;DHT22;12020;51.384;6.908;2023-02-11T06:17:33;6.30;99.90
23685;DHT22;12020;51.384;6.908;2023-02-11T06:20:03;6.30;99.90
23685;DHT22;12020;51.384;6.908;2023-02-11T06:27:32;6.30;99.90
23685;DHT22;12020;51.384;6.908;2023-02-11T06:30:00;6.30;99.90
23685;DHT22;12020;51.384;6.908;2023-02-11T06:32:37;6.30;99.90
23685;DHT22;12020;51.384;6.908;2023-02-11T06:35:04;6.30;99.90
23685;DHT22;12020;51.384;6.908;2023-02-11T06:37:33;6.30;99.90
23685;DHT22;12020;51.384;6.908;2023-02-11T06:39:59;6.30;99.90
23685;DHT22;12020;51.384;6.908;2023-02-11T06:42:25;6.30;99.90
23685;DHT22;12020;51.384;6.908;2023-02-11T06:44:52;6.30;99.90
23685;DHT22;12020;51.384;6.908;2023-02-11T06:47:18;6.30;99.90
23685;DHT22;12020;51.384;6.908;2023-02-11T06:49:52;6.30;99.90
23685;DHT22;12020;51.384;6.908;2023-02-11T06:52:17;6.30;99.90
23685;DHT22;12020;51.384;6.908;2023-02-11T06:54:47;6.30;99.90
23685;DHT22;12020;51.384;6.908;2023-02-11T06:57:14;6.30;99.90
23685;DHT22;12020;51.384;6.908;2023-02-11T06:59:39;6.30;99.90
23685;DHT22;12020;51.384;6.908;2023-02-11T07:02:07;6.30;99.90
23685;DHT22;12020;51.384;6.908;2023-02-11T07:04:39;6.30;99.90
23685;DHT22;12020;51.384;6.908;2023-02-11T07:07:06;6.30;99.90
23685;DHT22;12020;51.384;6.908;2023-02-11T07:09:31;6.30;99.90
23685;DHT22;12020;51.384;6.908;2023-02-11T07:11:59;6.30;99.90
23685;DHT22;12020;51.384;6.908;2023-02-11T07:14:24;6.30;99.90
23685;DHT22;12020;51.384;6.908;2023-02-11T07:16:57;6.30;99.90
23685;DHT22;12020;51.384;6.908;2023-02-11T07:19:27;6.30;99.90
23685;DHT22;12020;51.384;6.908;2023-02-11T07:21:54;6.30;99.90
23685;DHT22;12020;51.384;6.908;2023-02-11T07:24:21;6.40;99.90
23685;DHT22;12020;51.384;6.908;2023-02-11T07:29:19;6.50;99.90
23685;DHT22;12020;51.384;6.908;2023-02-11T07:31:45;6.50;99.90
23685;DHT22;12020;51.384;6.908;2023-02-11T07:34:12;6.50;99.90
23685;DHT22;12020;51.384;6.908;2023-02-11T07:36:39;6.50;99.90
23685;DHT22;12020;51.384;6.908;2023-02-11T07:39:08;6.40;99.90
23685;DHT22;12020;51.384;6.908;2023-02-11T07:41:35;6.40;99.90
23685;DHT22;12020;51.384;6.908;2023-02-11T07:44:02;6.40;99.90
23685;DHT22;12020;51.384;6.908;2023-02-11T07:46:34;6.40;99.90
23685;DHT22;12020;51.384;6.908;2023-02-11T07:49:01;6.40;99.90
23685;DHT22;12020;51.384;6.908;2023-02-11T07:51:28;6.40;99.90
23685;DHT22;12020;51.384;6.908;2023-02-11T07:53:56;6.50;99.90
23685;DHT22;12020;51.384;6.908;2023-02-11T07:56:23;6.50;99.90
23685;DHT22;12020;51.384;6.908;2023-02-11T07:58:49;6.50;99.90
23685;DHT22;12020;51.384;6.908;2023-02-11T08:01:23;6.50;99.90
23685;DHT22;12020;51.384;6.908;2023-02-11T08:04:01;6.50;99.90
23685;DHT22;12020;51.384;6.908;2023-02-11T08:06:30;6.50;99.90
23685;DHT22;12020;51.384;6.908;2023-02-11T08:09:03;6.50;99.90
23685;DHT22;12020;51.384;6.908;2023-02-11T08:16:33;6.50;99.90
23685;DHT22;12020;51.384;6.908;2023-02-11T08:19:10;6.50;99.90
23685;DHT22;12020;51.384;6.908;2023-02-11T08:21:37;6.50;99.90
23685;DHT22;12020;51.384;6.908;2023-02-11T08:24:11;6.50;99.90
23685;DHT22;12020;51.384;6.908;2023-02-11T08:29:23;6.60;99.90
23685;DHT22;12020;51.384;6.908;2023-02-11T08:31:50;6.50;99.90
23685;DHT22;12020;51.384;6.908;2023-02-11T08:34:18;6.60;99.90
23685;DHT22;12020;51.384;6.908;2023-02-11T08:36:44;6.60;99.90
23685;DHT22;12020;51.384;6.908;2023-02-11T08:39:15;6.60;99.90
23685;DHT22;12020;51.384;6.908;2023-02-11T08:41:41;6.60;99.90
23685;DHT22;12020;51.384;6.908;2023-02-11T08:44:06;6.60;99.90
23685;DHT22;12020;51.384;6.908;2023-02-11T08:46:32;6.60;99.90
23685;DHT22;12020;51.384;6.908;2023-02-11T08:48:58;6.70;99.90
23685;DHT22;12020;51.384;6.908;2023-02-11T08:51:24;6.70;99.90
23685;DHT22;12020;51.384;6.908;2023-02-11T08:53:52;6.70;99.90
23685;DHT22;12020;51.384;6.908;2023-02-11T08:56:18;6.70;99.90
23685;DHT22;12020;51.384;6.908;2023-02-11T09:01:15;6.70;99.90
23685;DHT22;12020;51.384;6.908;2023-02-11T09:03:41;6.70;99.90
23685;DHT22;12020;51.384;6.908;2023-02-11T09:06:15;6.70;99.90
23685;DHT22;12020;51.384;6.908;2023-02-11T09:08:44;6.80;99.90
23685;DHT22;12020;51.384;6.908;2023-02-11T09:11:10;6.80;99.90
23685;DHT22;12020;51.384;6.908;2023-02-11T09:13:36;6.80;99.90
23685;DHT22;12020;51.384;6.908;2023-02-11T09:16:02;6.80;99.90
23685;DHT22;12020;51.384;6.908;2023-02-11T09:18:28;6.80;99.90
23685;DHT22;12020;51.384;6.908;2023-02-11T09:21:07;6.80;99.90
23685;DHT22;12020;51.384;6.908;2023-02-11T09:23:33;6.90;99.90
23685;DHT22;12020;51.384;6.908;2023-02-11T09:26:20;6.90;99.90
23685;DHT22;12020;51.384;6.908;2023-02-11T09:28:46;6.90;99.90
23685;DHT22;12020;51.384;6.908;2023-02-11T09:31:14;6.90;99.90
23685;DHT22;12020;51.384;6.908;2023-02-11T09:33:41;6.90;99.90
23685;DHT22;12020;51.384;6.908;2023-02-11T09:36:19;7.00;99.90
23685;DHT22;12020;51.384;6.908;2023-02-11T09:38:50;7.00;99.90
23685;DHT22;12020;51.384;6.908;2023-02-11T09:41:40;7.00;99.90
23685;DHT22;12020;51.384;6.908;2023-02-11T09:44:04;7.00;99.90
23685;DHT22;12020;51.384;6.908;2023-02-11T09:46:51;7.00;99.90
23685;DHT22;12020;51.384;6.908;2023-02-11T09:49:20;7.10;99.90
23685;DHT22;12020;51.384;6.908;2023-02-11T09:51:49;7.10;99.90
23685;DHT22;12020;51.384;6.908;2023-02-11T09:54:21;7.10;99.90
23685;DHT22;12020;51.384;6.908;2023-02-11T09:56:48;7.10;99.90
23685;DHT22;12020;51.384;6.908;2023-02-11T09:59:18;7.10;99.90
23685;DHT22;12020;51.384;6.908;2023-02-11T10:02:01;7.10;99.90
23685;DHT22;12020;51.384;6.908;2023-02-11T10:07:16;7.20;99.90
23685;DHT22;12020;51.384;6.908;2023-02-11T10:21:12;7.30;99.90
23685;DHT22;12020;51.384;6.908;2023-02-11T10:23:18;7.40;99.90
23685;DHT22;12020;51.384;6.908;2023-02-11T10:25:50;7.40;99.90
23685;DHT22;12020;51.384;6.908;2023-02-11T10:28:29;7.50;99.90
23685;DHT22;12020;51.384;6.908;2023-02-11T10:36:02;7.50;99.90
23685;DHT22;12020;51.384;6.908;2023-02-11T10:38:28;7.50;99.90
23685;DHT22;12020;51.384;6.908;2023-02-11T10:40:54;7.50;99.90
23685;DHT22;12020;51.384;6.908;2023-02-11T10:43:33;7.50;99.90
23685;DHT22;12020;51.384;6.908;2023-02-11T10:46:02;7.50;99.90
23685;DHT22;12020;51.384;6.908;2023-02-11T10:48:47;7.50;99.90
23685;DHT22;12020;51.384;6.908;2023-02-11T10:51:24;7.60;99.90
23685;DHT22;12020;51.384;6.908;2023-02-11T10:54:16;7.60;99.90
23685;DHT22;12020;51.384;6.908;2023-02-11T10:56:46;7.60;99.90
23685;DHT22;12020;51.384;6.908;2023-02-11T11:01:52;7.60;99.90
23685;DHT22;12020;51.384;6.908;2023-02-11T11:06:48;7.70;99.90
23685;DHT22;12020;51.384;6.908;2023-02-11T11:09:26;7.60;99.90
23685;DHT22;12020;51.384;6.908;2023-02-11T11:11:52;7.70;99.90
23685;DHT22;12020;51.384;6.908;2023-02-11T11:14:18;7.70;99.90
23685;DHT22;12020;51.384;6.908;2023-02-11T11:16:51;7.70;99.90
23685;DHT22;12020;51.384;6.908;2023-02-11T11:19:22;7.70;99.90
23685;DHT22;12020;51.384;6.908;2023-02-11T11:21:57;7.70;99.90
23685;DHT22;12020;51.384;6.908;2023-02-11T11:26:58;7.70;99.90
23685;DHT22;12020;51.384;6.908;2023-02-11T11:34:47;7.80;99.90
23685;DHT22;12020;51.384;6.908;2023-02-11T11:40:00;7.80;99.90
23685;DHT22;12020;51.384;6.908;2023-02-11T11:42:31;7.80;99.90
23685;DHT22;12020;51.384;6.908;2023-02-11T11:47:49;7.80;99.90
23685;DHT22;12020;51.384;6.908;2023-02-11T11:58:01;8.00;99.90
23685;DHT22;12020;51.384;6.908;2023-02-11T12:00:35;8.00;99.90
23685;DHT22;12020;51.384;6.908;2023-02-11T12:03:14;8.00;99.90
23685;DHT22;12020;51.384;6.908;2023-02-11T12:08:29;8.00;99.90
23685;DHT22;12020;51.384;6.908;2023-02-11T12:13:27;8.00;99.90
23685;DHT22;12020;51.384;6.908;2023-02-11T12:16:07;8.00;99.90
23685;DHT22;12020;51.384;6.908;2023-02-11T12:27:01;8.10;99.90
23685;DHT22;12020;51.384;6.908;2023-02-11T12:32:16;8.10;99.90
23685;DHT22;12020;51.384;6.908;2023-02-11T12:42:49;8.10;99.90
23685;DHT22;12020;51.384;6.908;2023-02-11T12:45:44;8.10;99.90
23685;DHT22;12020;51.384;6.908;2023-02-11T12:48:20;8.10;99.90
23685;DHT22;12020;51.384;6.908;2023-02-11T12:50:50;8.10;99.90
23685;DHT22;12020;51.384;6.908;2023-02-11T12:56:05;8.10;99.90
23685;DHT22;12020;51.384;6.908;2023-02-11T12:58:45;8.20;99.90
23685;DHT22;12020;51.384;6.908;2023-02-11T13:03:49;8.20;99.90
23685;DHT22;12020;51.384;6.908;2023-02-11T13:06:21;8.20;99.90
23685;DHT22;12020;51.384;6.908;2023-02-11T13:16:52;8.30;99.90
23685;DHT22;12020;51.384;6.908;2023-02-11T13:34:53;8.40;99.90
23685;DHT22;12020;51.384;6.908;2023-02-11T13:47:32;8.40;99.90
23685;DHT22;12020;51.384;6.908;2023-02-11T13:49:59;8.40;99.90
23685;DHT22;12020;51.384;6.908;2023-02-11T13:52:30;8.50;99.90
23685;DHT22;12020;51.384;6.908;2023-02-11T13:57:36;8.50;99.90
23685;DHT22;12020;51.384;6.908;2023-02-11T14:02:55;8.50;99.90
23685;DHT22;12020;51.384;6.908;2023-02-11T14:14:21;8.50;99.90
23685;DHT22;12020;51.384;6.908;2023-02-11T14:22:05;8.60;99.90
23685;DHT22;12020;51.384;6.908;2023-02-11T14:27:10;8.60;99.90
23685;DHT22;12020;51.384;6.908;2023-02-11T14:43:26;8.60;99.90
23685;DHT22;12020;51.384;6.908;2023-02-11T14:45:53;8.70;99.90
23685;DHT22;12020;51.384;6.908;2023-02-11T14:48:29;8.70;99.90
23685;DHT22;12020;51.384;6.908;2023-02-11T14:51:14;8.70;99.90
23685;DHT22;12020;51.384;6.908;2023-02-11T14:53:47;8.70;99.90
23685;DHT22;12020;51.384;6.908;2023-02-11T14:56:23;8.80;99.90
23685;DHT22;12020;51.384;6.908;2023-02-11T14:58:56;8.80;99.90
23685;DHT22;12020;51.384;6.908;2023-02-11T15:01:25;8.80;99.90
23685;DHT22;12020;51.384;6.908;2023-02-11T15:03:53;8.80;99.90
23685;DHT22;12020;51.384;6.908;2023-02-11T15:06:31;8.80;99.90
23685;DHT22;12020;51.384;6.908;2023-02-11T15:09:05;8.80;99.90
23685;DHT22;12020;51.384;6.908;2023-02-11T15:11:38;8.80;99.90
23685;DHT22;12020;51.384;6.908;2023-02-11T15:14:15;8.80;99.90
23685;DHT22;12020;51.384;6.908;2023-02-11T15:16:44;8.80;99.90
23685;DHT22;12020;51.384;6.908;2023-02-11T15:21:57;8.90;99.90
23685;DHT22;12020;51.384;6.908;2023-02-11T15:24:29;8.90;99.90
23685;DHT22;12020;51.384;6.908;2023-02-11T15:26:58;8.90;99.90
23685;DHT22;12020;51.384;6.908;2023-02-11T15:29:35;8.90;99.90
23685;DHT22;12020;51.384;6.908;2023-02-11T15:34:31;8.90;99.90
23685;DHT22;12020;51.384;6.908;2023-02-11T15:36:59;8.90;99.90
23685;DHT22;12020;51.384;6.908;2023-02-11T15:41:55;8.90;99.90
23685;DHT22;12020;51.384;6.908;2023-02-11T15:44:28;8.90;99.90
23685;DHT22;12020;51.384;6.908;2023-02-11T15:46:54;8.90;99.90
23685;DHT22;12020;51.384;6.908;2023-02-11T15:49:19;8.90;99.90
23685;DHT22;12020;51.384;6.908;2023-02-11T15:51:45;8.90;99.90
23685;DHT22;12020;51.384;6.908;2023-02-11T15:54:18;8.80;99.90
23685;DHT22;12020;51.384;6.908;2023-02-11T15:56:45;8.80;99.90
23685;DHT22;12020;51.384;6.908;2023-02-11T15:59:16;8.80;99.90
23685;DHT22;12020;51.384;6.908;2023-02-11T16:01:43;8.80;99.90
23685;DHT22;12020;51.384;6.908;2023-02-11T16:04:25;8.80;99.90
23685;DHT22;12020;51.384;6.908;2023-02-11T16:06:53;8.80;99.90
23685;DHT22;12020;51.384;6.908;2023-02-11T16:09:55;8.80;99.90
23685;DHT22;12020;51.384;6.908;2023-02-11T16:12:48;8.80;99.90
23685;DHT22;12020;51.384;6.908;2023-02-11T16:17:47;8.80;99.90
23685;DHT22;12020;51.384;6.908;2023-02-11T16:20:17;8.80;99.90
23685;DHT22;12020;51.384;6.908;2023-02-11T16:22:44;8.80;99.90
23685;DHT22;12020;51.384;6.908;2023-02-11T16:25:17;8.80;99.90
23685;DHT22;12020;51.384;6.908;2023-02-11T16:27:54;8.80;99.90
23685;DHT22;12020;51.384;6.908;2023-02-11T16:30:35;8.80;99.90
23685;DHT22;12020;51.384;6.908;2023-02-11T16:33:07;8.80;99.90
23685;DHT22;12020;51.384;6.908;2023-02-11T16:38:17;8.80;99.90
23685;DHT22;12020;51.384;6.908;2023-02-11T16:43:18;8.80;99.90
23685;DHT22;12020;51.384;6.908;2023-02-11T16:45:49;8.70;99.90
23685;DHT22;12020;51.384;6.908;2023-02-11T16:48:16;8.80;99.90
23685;DHT22;12020;51.384;6.908;2023-02-11T16:50:47;8.70;99.90
23685;DHT22;12020;51.384;6.908;2023-02-11T16:53:25;8.70;99.90
23685;DHT22;12020;51.384;6.908;2023-02-11T16:55:59;8.70;99.90
23685;DHT22;12020;51.384;6.908;2023-02-11T16:58:26;8.70;99.90
23685;DHT22;12020;51.384;6.908;2023-02-11T17:00:53;8.70;99.90
23685;DHT22;12020;51.384;6.908;2023-02-11T17:03:22;8.70;99.90
23685;DHT22;12020;51.384;6.908;2023-02-11T17:05:50;8.70;99.90
23685;DHT22;12020;51.384;6.908;2023-02-11T17:08:19;8.60;99.90
23685;DHT22;12020;51.384;6.908;2023-02-11T17:10:46;8.70;99.90
23685;DHT22;12020;51.384;6.908;2023-02-11T17:13:12;8.70;99.90
23685;DHT22;12020;51.384;6.908;2023-02-11T17:15:39;8.70;99.90
23685;DHT22;12020;51.384;6.908;2023-02-11T17:18:10;8.70;99.90
23685;DHT22;12020;51.384;6.908;2023-02-11T17:20:39;8.70;99.90
23685;DHT22;12020;51.384;6.908;2023-02-11T17:23:12;8.70;99.90
23685;DHT22;12020;51.384;6.908;2023-02-11T17:25:42;8.70;99.90
23685;DHT22;12020;51.384;6.908;2023-02-11T17:28:08;8.70;99.90
23685;DHT22;12020;51.384;6.908;2023-02-11T17:30:34;8.70;99.90
23685;DHT22;12020;51.384;6.908;2023-02-11T17:33:01;8.60;99.90
23685;DHT22;12020;51.384;6.908;2023-02-11T17:41:02;8.70;99.90
23685;DHT22;12020;51.384;6.908;2023-02-11T17:43:38;8.70;99.90
23685;DHT22;12020;51.384;6.908;2023-02-11T17:46:07;8.70;99.90
23685;DHT22;12020;51.384;6.908;2023-02-11T17:48:37;8.60;99.90
23685;DHT22;12020;51.384;6.908;2023-02-11T17:51:05;8.60;99.90
23685;DHT22;12020;51.384;6.908;2023-02-11T17:56:11;8.60;99.90
23685;DHT22;12020;51.384;6.908;2023-02-11T18:03:35;8.60;99.90
23685;DHT22;12020;51.384;6.908;2023-02-11T18:06:01;8.60;99.90
23685;DHT22;12020;51.384;6.908;2023-02-11T18:08:34;8.60;99.90
23685;DHT22;12020;51.384;6.908;2023-02-11T18:13:55;8.60;99.90
23685;DHT22;12020;51.384;6.908;2023-02-11T18:16:29;8.60;99.90
23685;DHT22;12020;51.384;6.908;2023-02-11T18:18:55;8.60;99.90
23685;DHT22;12020;51.384;6.908;2023-02-11T18:23:58;8.60;99.90
23685;DHT22;12020;51.384;6.908;2023-02-11T18:28:56;8.50;99.90
23685;DHT22;12020;51.384;6.908;2023-02-11T18:31:25;8.50;99.90
23685;DHT22;12020;51.384;6.908;2023-02-11T18:33:55;8.50;99.90
23685;DHT22;12020;51.384;6.908;2023-02-11T18:36:27;8.50;99.90
23685;DHT22;12020;51.384;6.908;2023-02-11T18:44:03;8.50;99.90
23685;DHT22;12020;51.384;6.908;2023-02-11T18:46:37;8.50;99.90
23685;DHT22;12020;51.384;6.908;2023-02-11T18:49:06;8.50;99.90
23685;DHT22;12020;51.384;6.908;2023-02-11T18:51:33;8.50;99.90
23685;DHT22;12020;51.384;6.908;2023-02-11T18:54:12;8.50;99.90
23685;DHT22;12020;51.384;6.908;2023-02-11T18:59:31;8.40;99.90
23685;DHT22;12020;51.384;6.908;2023-02-11T19:01:58;8.40;99.90
23685;DHT22;12020;51.384;6.908;2023-02-11T19:04:24;8.40;99.90
23685;DHT22;12020;51.384;6.908;2023-02-11T19:06:52;8.40;99.90
23685;DHT22;12020;51.384;6.908;2023-02-11T19:09:24;8.40;99.90
23685;DHT22;12020;51.384;6.908;2023-02-11T19:11:58;8.40;99.90
23685;DHT22;12020;51.384;6.908;2023-02-11T19:14:28;8.30;99.90
23685;DHT22;12020;51.384;6.908;2023-02-11T19:16:58;8.40;99.90
23685;DHT22;12020;51.384;6.908;2023-02-11T19:19:34;8.40;99.90
23685;DHT22;12020;51.384;6.908;2023-02-11T19:22:06;8.40;99.90
23685;DHT22;12020;51.384;6.908;2023-02-11T19:24:34;8.40;99.90
23685;DHT22;12020;51.384;6.908;2023-02-11T19:27:08;8.40;99.90
23685;DHT22;12020;51.384;6.908;2023-02-11T19:29:40;8.30;99.90
23685;DHT22;12020;51.384;6.908;2023-02-11T19:32:13;8.40;99.90
23685;DHT22;12020;51.384;6.908;2023-02-11T19:34:42;8.40;99.90
23685;DHT22;12020;51.384;6.908;2023-02-11T19:39:45;8.40;99.90
23685;DHT22;12020;51.384;6.908;2023-02-11T19:42:19;8.40;99.90
23685;DHT22;12020;51.384;6.908;2023-02-11T19:44:53;8.40;99.90
23685;DHT22;12020;51.384;6.908;2023-02-11T19:47:18;8.40;99.90
23685;DHT22;12020;51.384;6.908;2023-02-11T19:49:55;8.40;99.90
23685;DHT22;12020;51.384;6.908;2023-02-11T19:52:21;8.40;99.90
23685;DHT22;12020;51.384;6.908;2023-02-11T19:54:49;8.40;99.90
23685;DHT22;12020;51.384;6.908;2023-02-11T19:59:54;8.40;99.90
23685;DHT22;12020;51.384;6.908;2023-02-11T20:02:21;8.40;99.90
23685;DHT22;12020;51.384;6.908;2023-02-11T20:04:54;8.40;99.90
23685;DHT22;12020;51.384;6.908;2023-02-11T20:07:25;8.40;99.90
23685;DHT22;12020;51.384;6.908;2023-02-11T20:10:00;8.40;99.90
23685;DHT22;12020;51.384;6.908;2023-02-11T20:12:35;8.40;99.90
23685;DHT22;12020;51.384;6.908;2023-02-11T20:15:03;8.40;99.90
23685;DHT22;12020;51.384;6.908;2023-02-11T20:17:29;8.40;99.90
23685;DHT22;12020;51.384;6.908;2023-02-11T20:19:56;8.40;99.90
23685;DHT22;12020;51.384;6.908;2023-02-11T20:22:23;8.40;99.90
23685;DHT22;12020;51.384;6.908;2023-02-11T20:24:57;8.40;99.90
23685;DHT22;12020;51.384;6.908;2023-02-11T20:27:23;8.40;99.90
23685;DHT22;12020;51.384;6.908;2023-02-11T20:29:58;8.40;99.90
23685;DHT22;12020;51.384;6.908;2023-02-11T20:35:03;8.40;99.90
23685;DHT22;12020;51.384;6.908;2023-02-11T20:37:29;8.40;99.90
23685;DHT22;12020;51.384;6.908;2023-02-11T20:39:55;8.40;99.90
23685;DHT22;12020;51.384;6.908;2023-02-11T20:42:30;8.40;99.90
23685;DHT22;12020;51.384;6.908;2023-02-11T20:44:55;8.40;99.90
23685;DHT22;12020;51.384;6.908;2023-02-11T20:47:21;8.30;99.90
23685;DHT22;12020;51.384;6.908;2023-02-11T20:49:47;8.30;99.90
23685;DHT22;12020;51.384;6.908;2023-02-11T20:55:06;8.30;99.90
23685;DHT22;12020;51.384;6.908;2023-02-11T20:57:34;8.30;99.90
23685;DHT22;12020;51.384;6.908;2023-02-11T21:00:02;8.30;99.90
23685;DHT22;12020;51.384;6.908;2023-02-11T21:02:30;8.30;99.90
23685;DHT22;12020;51.384;6.908;2023-02-11T21:04:57;8.30;99.90
23685;DHT22;12020;51.384;6.908;2023-02-11T21:09:53;8.30;99.90
23685;DHT22;12020;51.384;6.908;2023-02-11T21:14:49;8.30;99.90
23685;DHT22;12020;51.384;6.908;2023-02-11T21:17:22;8.30;99.90